sensor_id;sensor_type;location;lat;lon;timestamp;P1;durP1;ratioP1;P2;durP2;ratioP2
70122;SDS011;57489;37.404;24.920;2023-03-14T00:00:18;3.97;;;1.07;;
70122;SDS011;57489;37.404;24.920;2023-03-14T00:05:19;3.27;;;1.40;;
70122;SDS011;57489;37.404;24.920;2023-03-14T00:10:19;3.78;;;1.75;;
70122;SDS011;57489;37.404;24.920;2023-03-14T00:15:20;4.53;;;1.40;;
70122;SDS011;57489;37.404;24.920;2023-03-14T00:20:20;3.50;;;1.40;;
70122;SDS011;57489;37.404;24.920;2023-03-14T00:25:21;6.00;;;1.33;;
70122;SDS011;57489;37.404;24.920;2023-03-14T00:30:21;2.87;;;1.30;;
70122;SDS011;57489;37.404;24.920;2023-03-14T00:35:22;3.53;;;1.30;;
70122;SDS011;57489;37.404;24.920;2023-03-14T00:40:22;4.10;;;1.67;;
70122;SDS011;57489;37.404;24.920;2023-03-14T00:45:23;4.40;;;1.47;;
70122;SDS011;57489;37.404;24.920;2023-03-14T00:50:23;3.93;;;1.17;;
70122;SDS011;57489;37.404;24.920;2023-03-14T00:55:24;4.00;;;1.30;;
70122;SDS011;57489;37.404;24.920;2023-03-14T01:00:24;3.73;;;1.60;;
70122;SDS011;57489;37.404;24.920;2023-03-14T01:05:25;4.22;;;1.30;;
70122;SDS011;57489;37.404;24.920;2023-03-14T01:10:26;4.57;;;1.53;;
70122;SDS011;57489;37.404;24.920;2023-03-14T01:15:26;4.43;;;1.83;;
70122;SDS011;57489;37.404;24.920;2023-03-14T01:20:27;3.97;;;1.50;;
70122;SDS011;57489;37.404;24.920;2023-03-14T01:25:28;4.95;;;1.45;;
70122;SDS011;57489;37.404;24.920;2023-03-14T01:30:28;4.70;;;1.97;;
70122;SDS011;57489;37.404;24.920;2023-03-14T01:35:29;2.73;;;1.00;;
70122;SDS011;57489;37.404;24.920;2023-03-14T01:40:29;4.67;;;1.73;;
70122;SDS011;57489;37.404;24.920;2023-03-14T01:50:58;4.30;;;1.20;;
70122;SDS011;57489;37.404;24.920;2023-03-14T01:56:00;4.93;;;1.20;;
70122;SDS011;57489;37.404;24.920;2023-03-14T02:01:02;3.17;;;1.17;;
70122;SDS011;57489;37.404;24.920;2023-03-14T02:06:04;3.90;;;1.10;;
70122;SDS011;57489;37.404;24.920;2023-03-14T02:11:07;4.95;;;1.48;;
70122;SDS011;57489;37.404;24.920;2023-03-14T02:16:07;3.23;;;1.50;;
70122;SDS011;57489;37.404;24.920;2023-03-14T02:21:11;4.07;;;1.40;;
70122;SDS011;57489;37.404;24.920;2023-03-14T02:31:24;3.65;;;1.35;;
70122;SDS011;57489;37.404;24.920;2023-03-14T02:36:24;2.87;;;1.03;;
70122;SDS011;57489;37.404;24.920;2023-03-14T02:41:25;3.17;;;1.10;;
70122;SDS011;57489;37.404;24.920;2023-03-14T02:46:26;2.05;;;0.88;;
70122;SDS011;57489;37.404;24.920;2023-03-14T02:51:27;3.67;;;1.47;;
70122;SDS011;57489;37.404;24.920;2023-03-14T02:56:28;4.65;;;1.55;;
70122;SDS011;57489;37.404;24.920;2023-03-14T03:01:28;3.67;;;1.13;;
70122;SDS011;57489;37.404;24.920;2023-03-14T03:06:29;2.50;;;1.10;;
70122;SDS011;57489;37.404;24.920;2023-03-14T03:11:29;4.87;;;2.27;;
70122;SDS011;57489;37.404;24.920;2023-03-14T03:16:30;3.87;;;1.60;;
70122;SDS011;57489;37.404;24.920;2023-03-14T03:21:30;4.17;;;1.40;;
70122;SDS011;57489;37.404;24.920;2023-03-14T03:26:30;2.27;;;1.00;;
70122;SDS011;57489;37.404;24.920;2023-03-14T03:31:31;4.20;;;1.30;;
70122;SDS011;57489;37.404;24.920;2023-03-14T03:36:32;4.63;;;1.40;;
70122;SDS011;57489;37.404;24.920;2023-03-14T03:41:33;2.60;;;1.10;;
70122;SDS011;57489;37.404;24.920;2023-03-14T03:46:33;2.67;;;1.23;;
70122;SDS011;57489;37.404;24.920;2023-03-14T03:51:34;3.63;;;1.20;;
70122;SDS011;57489;37.404;24.920;2023-03-14T03:56:34;3.50;;;1.37;;
70122;SDS011;57489;37.404;24.920;2023-03-14T04:01:35;3.33;;;1.37;;
70122;SDS011;57489;37.404;24.920;2023-03-14T04:06:36;2.53;;;1.17;;
70122;SDS011;57489;37.404;24.920;2023-03-14T04:11:37;4.32;;;1.33;;
70122;SDS011;57489;37.404;24.920;2023-03-14T04:16:38;4.60;;;1.30;;
70122;SDS011;57489;37.404;24.920;2023-03-14T04:21:38;3.57;;;1.50;;
70122;SDS011;57489;37.404;24.920;2023-03-14T04:26:39;5.10;;;1.40;;
70122;SDS011;57489;37.404;24.920;2023-03-14T04:31:39;6.97;;;1.52;;
70122;SDS011;57489;37.404;24.920;2023-03-14T04:36:39;3.37;;;1.50;;
70122;SDS011;57489;37.404;24.920;2023-03-14T04:41:40;2.87;;;1.10;;
70122;SDS011;57489;37.404;24.920;2023-03-14T04:46:40;4.37;;;1.50;;
70122;SDS011;57489;37.404;24.920;2023-03-14T04:51:41;2.87;;;1.43;;
70122;SDS011;57489;37.404;24.920;2023-03-14T04:56:41;2.90;;;1.00;;
70122;SDS011;57489;37.404;24.920;2023-03-14T05:01:42;4.40;;;1.47;;
70122;SDS011;57489;37.404;24.920;2023-03-14T05:06:42;3.10;;;0.87;;
70122;SDS011;57489;37.404;24.920;2023-03-14T05:11:43;3.60;;;1.40;;
70122;SDS011;57489;37.404;24.920;2023-03-14T05:16:43;3.30;;;1.37;;
70122;SDS011;57489;37.404;24.920;2023-03-14T05:21:43;4.90;;;1.67;;
70122;SDS011;57489;37.404;24.920;2023-03-14T05:26:44;3.37;;;1.17;;
70122;SDS011;57489;37.404;24.920;2023-03-14T05:31:44;3.90;;;1.40;;
70122;SDS011;57489;37.404;24.920;2023-03-14T05:36:45;3.93;;;1.27;;
70122;SDS011;57489;37.404;24.920;2023-03-14T05:41:45;5.17;;;1.60;;
70122;SDS011;57489;37.404;24.920;2023-03-14T05:46:46;6.07;;;2.20;;
70122;SDS011;57489;37.404;24.920;2023-03-14T05:51:46;6.60;;;2.17;;
70122;SDS011;57489;37.404;24.920;2023-03-14T05:56:47;9.93;;;2.30;;
70122;SDS011;57489;37.404;24.920;2023-03-14T06:01:47;14.80;;;2.60;;
70122;SDS011;57489;37.404;24.920;2023-03-14T06:06:47;9.33;;;2.97;;
70122;SDS011;57489;37.404;24.920;2023-03-14T06:11:48;16.17;;;3.20;;
70122;SDS011;57489;37.404;24.920;2023-03-14T06:16:49;9.80;;;2.67;;
70122;SDS011;57489;37.404;24.920;2023-03-14T06:21:49;16.83;;;3.03;;
70122;SDS011;57489;37.404;24.920;2023-03-14T06:26:50;13.40;;;3.00;;
70122;SDS011;57489;37.404;24.920;2023-03-14T06:31:50;24.33;;;5.57;;
70122;SDS011;57489;37.404;24.920;2023-03-14T06:36:51;25.03;;;5.37;;
70122;SDS011;57489;37.404;24.920;2023-03-14T06:41:51;30.13;;;7.03;;
70122;SDS011;57489;37.404;24.920;2023-03-14T06:46:51;27.87;;;7.53;;
70122;SDS011;57489;37.404;24.920;2023-03-14T06:51:52;26.10;;;5.90;;
70122;SDS011;57489;37.404;24.920;2023-03-14T06:56:52;21.13;;;5.80;;
70122;SDS011;57489;37.404;24.920;2023-03-14T07:01:53;23.10;;;5.43;;
70122;SDS011;57489;37.404;24.920;2023-03-14T07:06:53;17.43;;;5.50;;
70122;SDS011;57489;37.404;24.920;2023-03-14T07:11:54;17.10;;;4.63;;
70122;SDS011;57489;37.404;24.920;2023-03-14T07:16:54;19.30;;;4.63;;
70122;SDS011;57489;37.404;24.920;2023-03-14T07:21:54;18.70;;;4.93;;
70122;SDS011;57489;37.404;24.920;2023-03-14T07:26:55;17.23;;;5.10;;
70122;SDS011;57489;37.404;24.920;2023-03-14T07:31:55;18.80;;;3.90;;
70122;SDS011;57489;37.404;24.920;2023-03-14T07:36:56;11.10;;;3.50;;
70122;SDS011;57489;37.404;24.920;2023-03-14T07:41:56;9.30;;;3.27;;
70122;SDS011;57489;37.404;24.920;2023-03-14T07:46:57;12.33;;;3.50;;
70122;SDS011;57489;37.404;24.920;2023-03-14T07:51:57;8.83;;;3.23;;
70122;SDS011;57489;37.404;24.920;2023-03-14T07:56:58;12.83;;;3.10;;
70122;SDS011;57489;37.404;24.920;2023-03-14T08:01:58;12.25;;;2.65;;
70122;SDS011;57489;37.404;24.920;2023-03-14T08:06:59;10.70;;;3.17;;
70122;SDS011;57489;37.404;24.920;2023-03-14T08:11:59;10.30;;;3.17;;
70122;SDS011;57489;37.404;24.920;2023-03-14T08:17:00;9.23;;;2.80;;
70122;SDS011;57489;37.404;24.920;2023-03-14T08:22:00;11.47;;;3.83;;
70122;SDS011;57489;37.404;24.920;2023-03-14T08:27:00;8.33;;;2.80;;
70122;SDS011;57489;37.404;24.920;2023-03-14T08:32:01;7.37;;;2.60;;
70122;SDS011;57489;37.404;24.920;2023-03-14T08:37:01;8.20;;;2.30;;
70122;SDS011;57489;37.404;24.920;2023-03-14T08:42:02;10.27;;;2.17;;
70122;SDS011;57489;37.404;24.920;2023-03-14T08:47:02;7.40;;;2.73;;
70122;SDS011;57489;37.404;24.920;2023-03-14T08:52:04;6.93;;;2.70;;
70122;SDS011;57489;37.404;24.920;2023-03-14T08:57:05;8.18;;;2.00;;
70122;SDS011;57489;37.404;24.920;2023-03-14T09:02:05;9.67;;;2.10;;
70122;SDS011;57489;37.404;24.920;2023-03-14T09:07:06;7.13;;;2.30;;
70122;SDS011;57489;37.404;24.920;2023-03-14T09:12:06;7.33;;;2.50;;
70122;SDS011;57489;37.404;24.920;2023-03-14T09:17:07;6.85;;;2.30;;
70122;SDS011;57489;37.404;24.920;2023-03-14T09:22:07;8.77;;;2.30;;
70122;SDS011;57489;37.404;24.920;2023-03-14T09:27:07;5.37;;;1.90;;
70122;SDS011;57489;37.404;24.920;2023-03-14T09:32:08;10.43;;;2.40;;
70122;SDS011;57489;37.404;24.920;2023-03-14T09:37:08;7.23;;;2.30;;
70122;SDS011;57489;37.404;24.920;2023-03-14T09:42:12;7.30;;;1.90;;
70122;SDS011;57489;37.404;24.920;2023-03-14T09:47:15;9.98;;;2.00;;
70122;SDS011;57489;37.404;24.920;2023-03-14T09:52:19;7.40;;;2.20;;
70122;SDS011;57489;37.404;24.920;2023-03-14T09:57:23;7.03;;;2.85;;
70122;SDS011;57489;37.404;24.920;2023-03-14T10:02:25;8.02;;;2.30;;
70122;SDS011;57489;37.404;24.920;2023-03-14T10:07:32;5.97;;;2.40;;
70122;SDS011;57489;37.404;24.920;2023-03-14T10:12:33;7.00;;;2.17;;
70122;SDS011;57489;37.404;24.920;2023-03-14T10:17:39;7.75;;;2.28;;
70122;SDS011;57489;37.404;24.920;2023-03-14T10:22:46;7.85;;;2.47;;
70122;SDS011;57489;37.404;24.920;2023-03-14T10:27:51;7.07;;;2.20;;
70122;SDS011;57489;37.404;24.920;2023-03-14T10:32:51;8.13;;;2.00;;
70122;SDS011;57489;37.404;24.920;2023-03-14T10:38:00;11.67;;;3.30;;
70122;SDS011;57489;37.404;24.920;2023-03-14T10:43:03;14.20;;;3.70;;
70122;SDS011;57489;37.404;24.920;2023-03-14T10:48:13;9.90;;;3.00;;
70122;SDS011;57489;37.404;24.920;2023-03-14T10:53:25;10.35;;;2.92;;
70122;SDS011;57489;37.404;24.920;2023-03-14T10:58:27;9.17;;;2.50;;
70122;SDS011;57489;37.404;24.920;2023-03-14T11:03:30;9.15;;;2.63;;
70122;SDS011;57489;37.404;24.920;2023-03-14T11:09:21;10.00;;;2.85;;
70122;SDS011;57489;37.404;24.920;2023-03-14T11:14:34;7.23;;;2.67;;
70122;SDS011;57489;37.404;24.920;2023-03-14T11:19:42;7.78;;;2.78;;
70122;SDS011;57489;37.404;24.920;2023-03-14T11:35:45;8.70;;;2.00;;
70122;SDS011;57489;37.404;24.920;2023-03-14T11:40:51;8.15;;;2.65;;
70122;SDS011;57489;37.404;24.920;2023-03-14T11:51:19;7.40;;;2.90;;
70122;SDS011;57489;37.404;24.920;2023-03-14T11:56:29;7.05;;;2.25;;
70122;SDS011;57489;37.404;24.920;2023-03-14T12:01:38;4.45;;;2.10;;
70122;SDS011;57489;37.404;24.920;2023-03-14T12:06:51;6.10;;;2.00;;
70122;SDS011;57489;37.404;24.920;2023-03-14T12:12:01;3.85;;;1.85;;
70122;SDS011;57489;37.404;24.920;2023-03-14T12:17:06;8.07;;;1.93;;
70122;SDS011;57489;37.404;24.920;2023-03-14T12:22:17;11.20;;;2.35;;
70122;SDS011;57489;37.404;24.920;2023-03-14T12:27:49;8.55;;;1.70;;
70122;SDS011;57489;37.404;24.920;2023-03-14T12:43:36;6.38;;;1.83;;
70122;SDS011;57489;37.404;24.920;2023-03-14T12:48:37;6.00;;;2.33;;
70122;SDS011;57489;37.404;24.920;2023-03-14T13:04:07;9.63;;;2.17;;
70122;SDS011;57489;37.404;24.920;2023-03-14T13:14:30;6.60;;;1.77;;
70122;SDS011;57489;37.404;24.920;2023-03-14T13:19:31;9.52;;;2.03;;
70122;SDS011;57489;37.404;24.920;2023-03-14T13:24:34;12.93;;;2.50;;
70122;SDS011;57489;37.404;24.920;2023-03-14T13:29:34;6.10;;;2.00;;
70122;SDS011;57489;37.404;24.920;2023-03-14T13:34:35;10.32;;;2.15;;
70122;SDS011;57489;37.404;24.920;2023-03-14T13:39:37;9.77;;;2.10;;
70122;SDS011;57489;37.404;24.920;2023-03-14T13:44:39;7.43;;;1.73;;
70122;SDS011;57489;37.404;24.920;2023-03-14T13:49:40;6.00;;;1.47;;
70122;SDS011;57489;37.404;24.920;2023-03-14T13:54:42;8.98;;;2.00;;
70122;SDS011;57489;37.404;24.920;2023-03-14T13:59:42;7.37;;;1.80;;
70122;SDS011;57489;37.404;24.920;2023-03-14T14:04:43;11.60;;;1.77;;
70122;SDS011;57489;37.404;24.920;2023-03-14T14:09:47;12.73;;;2.83;;
70122;SDS011;57489;37.404;24.920;2023-03-14T14:25:30;12.70;;;1.93;;
70122;SDS011;57489;37.404;24.920;2023-03-14T14:30:32;7.28;;;2.08;;
70122;SDS011;57489;37.404;24.920;2023-03-14T14:35:33;9.85;;;1.65;;
70122;SDS011;57489;37.404;24.920;2023-03-14T14:40:35;7.30;;;1.47;;
70122;SDS011;57489;37.404;24.920;2023-03-14T14:45:45;8.38;;;2.00;;
70122;SDS011;57489;37.404;24.920;2023-03-14T14:50:50;4.83;;;1.57;;
70122;SDS011;57489;37.404;24.920;2023-03-14T14:56:07;6.17;;;1.80;;
70122;SDS011;57489;37.404;24.920;2023-03-14T15:01:25;7.80;;;1.75;;
70122;SDS011;57489;37.404;24.920;2023-03-14T15:06:32;7.80;;;1.87;;
70122;SDS011;57489;37.404;24.920;2023-03-14T15:11:33;8.60;;;1.77;;
70122;SDS011;57489;37.404;24.920;2023-03-14T15:16:33;5.27;;;1.40;;
70122;SDS011;57489;37.404;24.920;2023-03-14T15:21:34;4.00;;;1.90;;
70122;SDS011;57489;37.404;24.920;2023-03-14T15:26:34;5.63;;;1.33;;
70122;SDS011;57489;37.404;24.920;2023-03-14T15:31:35;5.90;;;1.87;;
70122;SDS011;57489;37.404;24.920;2023-03-14T15:36:35;6.03;;;1.40;;
70122;SDS011;57489;37.404;24.920;2023-03-14T15:41:37;5.68;;;1.65;;
70122;SDS011;57489;37.404;24.920;2023-03-14T15:46:37;4.97;;;1.30;;
70122;SDS011;57489;37.404;24.920;2023-03-14T15:51:38;5.53;;;1.60;;
70122;SDS011;57489;37.404;24.920;2023-03-14T15:56:38;7.07;;;1.80;;
70122;SDS011;57489;37.404;24.920;2023-03-14T16:01:38;5.40;;;1.43;;
70122;SDS011;57489;37.404;24.920;2023-03-14T16:06:39;4.93;;;1.23;;
70122;SDS011;57489;37.404;24.920;2023-03-14T16:11:40;8.17;;;1.50;;
70122;SDS011;57489;37.404;24.920;2023-03-14T16:16:40;6.33;;;1.60;;
70122;SDS011;57489;37.404;24.920;2023-03-14T16:21:40;6.07;;;1.20;;
70122;SDS011;57489;37.404;24.920;2023-03-14T16:26:41;12.50;;;1.70;;
70122;SDS011;57489;37.404;24.920;2023-03-14T16:31:41;5.27;;;1.40;;
70122;SDS011;57489;37.404;24.920;2023-03-14T16:36:42;4.27;;;1.47;;
70122;SDS011;57489;37.404;24.920;2023-03-14T16:41:42;9.30;;;1.40;;
70122;SDS011;57489;37.404;24.920;2023-03-14T16:46:43;8.33;;;1.60;;
70122;SDS011;57489;37.404;24.920;2023-03-14T16:51:43;11.13;;;1.40;;
70122;SDS011;57489;37.404;24.920;2023-03-14T16:56:44;9.67;;;1.87;;
70122;SDS011;57489;37.404;24.920;2023-03-14T17:01:44;8.57;;;2.07;;
70122;SDS011;57489;37.404;24.920;2023-03-14T17:06:45;9.15;;;2.13;;
70122;SDS011;57489;37.404;24.920;2023-03-14T17:11:45;10.37;;;1.80;;
70122;SDS011;57489;37.404;24.920;2023-03-14T17:16:46;12.93;;;1.90;;
70122;SDS011;57489;37.404;24.920;2023-03-14T17:21:46;5.83;;;1.50;;
70122;SDS011;57489;37.404;24.920;2023-03-14T17:26:46;7.17;;;1.87;;
70122;SDS011;57489;37.404;24.920;2023-03-14T17:31:47;13.90;;;1.97;;
70122;SDS011;57489;37.404;24.920;2023-03-14T17:36:47;10.67;;;1.80;;
70122;SDS011;57489;37.404;24.920;2023-03-14T17:41:48;9.57;;;1.63;;
70122;SDS011;57489;37.404;24.920;2023-03-14T17:46:48;10.70;;;1.90;;
70122;SDS011;57489;37.404;24.920;2023-03-14T17:51:49;6.63;;;2.43;;
70122;SDS011;57489;37.404;24.920;2023-03-14T17:56:49;9.10;;;1.75;;
70122;SDS011;57489;37.404;24.920;2023-03-14T18:01:50;8.23;;;1.33;;
70122;SDS011;57489;37.404;24.920;2023-03-14T18:06:50;8.03;;;2.17;;
70122;SDS011;57489;37.404;24.920;2023-03-14T18:11:51;10.90;;;1.70;;
70122;SDS011;57489;37.404;24.920;2023-03-14T18:16:51;8.60;;;1.33;;
70122;SDS011;57489;37.404;24.920;2023-03-14T18:21:52;10.57;;;1.97;;
70122;SDS011;57489;37.404;24.920;2023-03-14T18:26:52;6.00;;;1.53;;
70122;SDS011;57489;37.404;24.920;2023-03-14T18:31:52;9.67;;;1.77;;
70122;SDS011;57489;37.404;24.920;2023-03-14T18:36:53;11.67;;;1.77;;
70122;SDS011;57489;37.404;24.920;2023-03-14T18:41:54;8.50;;;1.63;;
70122;SDS011;57489;37.404;24.920;2023-03-14T18:46:54;12.00;;;2.90;;
70122;SDS011;57489;37.404;24.920;2023-03-14T18:51:54;7.57;;;1.47;;
70122;SDS011;57489;37.404;24.920;2023-03-14T18:56:55;7.80;;;1.57;;
70122;SDS011;57489;37.404;24.920;2023-03-14T19:01:55;7.30;;;1.17;;
70122;SDS011;57489;37.404;24.920;2023-03-14T19:06:56;10.67;;;2.20;;
70122;SDS011;57489;37.404;24.920;2023-03-14T19:11:57;12.07;;;1.45;;
70122;SDS011;57489;37.404;24.920;2023-03-14T19:16:57;6.13;;;1.37;;
70122;SDS011;57489;37.404;24.920;2023-03-14T19:21:57;4.97;;;1.43;;
70122;SDS011;57489;37.404;24.920;2023-03-14T19:26:58;6.00;;;1.90;;
70122;SDS011;57489;37.404;24.920;2023-03-14T19:31:58;7.40;;;1.30;;
70122;SDS011;57489;37.404;24.920;2023-03-14T19:36:59;8.07;;;1.80;;
70122;SDS011;57489;37.404;24.920;2023-03-14T19:41:59;4.18;;;0.90;;
70122;SDS011;57489;37.404;24.920;2023-03-14T19:47:00;6.40;;;1.60;;
70122;SDS011;57489;37.404;24.920;2023-03-14T19:52:00;5.83;;;1.77;;
70122;SDS011;57489;37.404;24.920;2023-03-14T19:57:00;5.03;;;1.73;;
70122;SDS011;57489;37.404;24.920;2023-03-14T20:02:01;6.40;;;1.87;;
70122;SDS011;57489;37.404;24.920;2023-03-14T20:07:01;5.83;;;1.53;;
70122;SDS011;57489;37.404;24.920;2023-03-14T20:12:02;8.70;;;1.50;;
70122;SDS011;57489;37.404;24.920;2023-03-14T20:17:02;5.77;;;1.40;;
70122;SDS011;57489;37.404;24.920;2023-03-14T20:22:03;7.80;;;1.40;;
70122;SDS011;57489;37.404;24.920;2023-03-14T20:27:03;4.50;;;1.40;;
70122;SDS011;57489;37.404;24.920;2023-03-14T20:32:04;5.13;;;1.43;;
70122;SDS011;57489;37.404;24.920;2023-03-14T20:37:05;3.67;;;1.13;;
70122;SDS011;57489;37.404;24.920;2023-03-14T20:42:05;6.27;;;1.30;;
70122;SDS011;57489;37.404;24.920;2023-03-14T20:47:05;4.33;;;1.47;;
70122;SDS011;57489;37.404;24.920;2023-03-14T20:52:06;5.47;;;1.27;;
70122;SDS011;57489;37.404;24.920;2023-03-14T20:57:06;6.37;;;1.90;;
70122;SDS011;57489;37.404;24.920;2023-03-14T21:02:08;3.43;;;1.23;;
70122;SDS011;57489;37.404;24.920;2023-03-14T21:07:09;6.53;;;1.63;;
70122;SDS011;57489;37.404;24.920;2023-03-14T21:12:09;4.23;;;1.50;;
70122;SDS011;57489;37.404;24.920;2023-03-14T21:17:10;3.27;;;1.10;;
70122;SDS011;57489;37.404;24.920;2023-03-14T21:22:10;3.17;;;1.50;;
70122;SDS011;57489;37.404;24.920;2023-03-14T21:27:10;5.37;;;1.37;;
70122;SDS011;57489;37.404;24.920;2023-03-14T21:32:11;5.07;;;1.80;;
70122;SDS011;57489;37.404;24.920;2023-03-14T21:37:11;3.03;;;0.90;;
70122;SDS011;57489;37.404;24.920;2023-03-14T21:42:12;6.10;;;1.20;;
70122;SDS011;57489;37.404;24.920;2023-03-14T21:47:13;3.70;;;1.30;;
70122;SDS011;57489;37.404;24.920;2023-03-14T21:52:14;5.65;;;1.20;;
70122;SDS011;57489;37.404;24.920;2023-03-14T21:57:15;5.57;;;1.10;;
70122;SDS011;57489;37.404;24.920;2023-03-14T22:02:16;4.13;;;1.17;;
70122;SDS011;57489;37.404;24.920;2023-03-14T22:07:18;3.37;;;1.17;;
70122;SDS011;57489;37.404;24.920;2023-03-14T22:12:18;4.47;;;1.33;;
70122;SDS011;57489;37.404;24.920;2023-03-14T22:17:19;4.50;;;1.40;;
70122;SDS011;57489;37.404;24.920;2023-03-14T22:22:19;5.17;;;1.37;;
70122;SDS011;57489;37.404;24.920;2023-03-14T22:27:19;2.33;;;0.93;;
70122;SDS011;57489;37.404;24.920;2023-03-14T22:32:20;3.40;;;1.23;;
70122;SDS011;57489;37.404;24.920;2023-03-14T22:37:20;1.87;;;1.17;;
70122;SDS011;57489;37.404;24.920;2023-03-14T22:42:22;2.47;;;0.98;;
70122;SDS011;57489;37.404;24.920;2023-03-14T22:47:23;3.03;;;1.03;;
70122;SDS011;57489;37.404;24.920;2023-03-14T22:52:23;5.87;;;1.20;;
70122;SDS011;57489;37.404;24.920;2023-03-14T22:57:24;2.87;;;0.90;;
70122;SDS011;57489;37.404;24.920;2023-03-14T23:02:24;3.83;;;1.43;;
70122;SDS011;57489;37.404;24.920;2023-03-14T23:07:25;2.67;;;1.40;;
70122;SDS011;57489;37.404;24.920;2023-03-14T23:12:25;3.73;;;1.23;;
70122;SDS011;57489;37.404;24.920;2023-03-14T23:17:26;3.33;;;1.10;;
70122;SDS011;57489;37.404;24.920;2023-03-14T23:22:26;4.37;;;1.23;;
70122;SDS011;57489;37.404;24.920;2023-03-14T23:27:27;3.33;;;1.10;;
70122;SDS011;57489;37.404;24.920;2023-03-14T23:32:27;3.47;;;1.20;;
70122;SDS011;57489;37.404;24.920;2023-03-14T23:37:28;4.30;;;1.30;;
70122;SDS011;57489;37.404;24.920;2023-03-14T23:42:28;2.70;;;0.90;;
70122;SDS011;57489;37.404;24.920;2023-03-14T23:47:28;2.43;;;1.10;;
70122;SDS011;57489;37.404;24.920;2023-03-14T23:52:29;2.80;;;1.20;;
70122;SDS011;57489;37.404;24.920;2023-03-14T23:57:29;3.83;;;1.30;;
